Austin, Colorado
Current Conditions -  °F | °C
As of 11:15 AM on Thursday 27 Nov 2014 (Local Time) from KAJZ Reporting Station
Clear Clear  
Wind Chill:   Ceiling: Unl
Heat Index:   Visibility: 10mi
Dew Point: -2°   Wind: 3mph
Humidity: 49%   Direction: 120°ESE
Pressure: 30.45"   Gusts: NA
Location:  38.78°N, 107.95°W
Report Text: KAJZ 271815Z AUTO 12003KT 10SM CLR 08/M02 A3045 RMK AO2 T00821020
Loading
Personal Weather Stations






























Interactive Weather Map New forecast layout! Learn more

10-Day Weather Forecast

Advertisements
Track Severe Weather on mobile